createdAt,value
2023-08-29T00:01:08.659Z,0
2023-08-29T00:02:24.905Z,0
2023-08-29T00:03:40.214Z,0
2023-08-29T00:04:56.463Z,0
2023-08-29T00:06:12.708Z,0
2023-08-29T00:07:26.000Z,0
2023-08-29T00:07:28.959Z,0
2023-08-29T00:10:01.456Z,0
2023-08-29T00:11:17.703Z,0
2023-08-29T00:12:33.951Z,0
2023-08-29T00:13:50.202Z,0
2023-08-29T00:15:06.449Z,0
2023-08-29T00:16:22.695Z,0
2023-08-29T00:17:38.943Z,0
2023-08-29T00:18:55.210Z,0
2023-08-29T00:20:10.504Z,0
2023-08-29T00:21:26.753Z,0
2023-08-29T00:22:42.995Z,0
2023-08-29T00:23:59.250Z,0
2023-08-29T00:25:15.497Z,0
2023-08-29T00:26:31.741Z,0
2023-08-29T00:27:47.999Z,0
2023-08-29T00:29:04.242Z,0
2023-08-29T00:30:20.490Z,0
2023-08-29T00:31:36.743Z,0
2023-08-29T00:32:52.987Z,0
2023-08-29T00:34:09.235Z,0
2023-08-29T00:35:25.486Z,0
2023-08-29T00:36:40.791Z,0
2023-08-29T00:37:54.000Z,0
2023-08-29T00:37:57.037Z,0
2023-08-29T00:40:29.538Z,0
2023-08-29T00:41:45.791Z,0
2023-08-29T00:43:02.269Z,0
2023-08-29T00:44:17.583Z,0
2023-08-29T00:45:33.827Z,0
2023-08-29T00:46:50.084Z,0
2023-08-29T00:48:06.332Z,0
2023-08-29T00:49:22.582Z,0
2023-08-29T00:50:38.832Z,0
2023-08-29T00:51:55.077Z,0
2023-08-29T00:53:11.325Z,0
2023-08-29T00:54:27.576Z,0
2023-08-29T00:55:41.000Z,0
2023-08-29T00:55:43.827Z,0
2023-08-29T00:58:16.317Z,0
2023-08-29T00:59:32.581Z,0
2023-08-29T01:00:47.872Z,0
2023-08-29T01:02:04.129Z,0
2023-08-29T01:03:20.367Z,0
2023-08-29T01:04:36.622Z,0
2023-08-29T01:05:50.000Z,0
2023-08-29T01:05:52.873Z,0
2023-08-29T01:08:25.366Z,0
2023-08-29T01:09:41.611Z,0
2023-08-29T01:10:57.869Z,0
2023-08-29T01:12:14.115Z,0
2023-08-29T01:13:30.363Z,0
2023-08-29T01:14:46.608Z,0
2023-08-29T01:16:02.855Z,0
2023-08-29T01:17:18.166Z,0
2023-08-29T01:18:34.425Z,0
2023-08-29T01:19:50.656Z,0
2023-08-29T01:21:06.910Z,0
2023-08-29T01:22:23.159Z,0
2023-08-29T01:23:39.408Z,0
2023-08-29T01:24:55.663Z,0
2023-08-29T01:26:11.908Z,0
2023-08-29T01:27:28.151Z,0
2023-08-29T01:28:44.406Z,0
2023-08-29T01:30:00.648Z,0
2023-08-29T01:31:16.900Z,0
2023-08-29T01:32:30.000Z,0
2023-08-29T01:32:33.155Z,0
2023-08-29T01:35:04.712Z,0
2023-08-29T01:36:20.954Z,0
2023-08-29T01:37:35.000Z,0
2023-08-29T01:37:37.209Z,0
2023-08-29T01:40:09.712Z,0
2023-08-29T01:41:23.000Z,0
2023-08-29T01:41:25.988Z,0
2023-08-29T01:43:58.464Z,0
2023-08-29T01:45:14.707Z,0
2023-08-29T01:46:30.958Z,0
2023-08-29T01:47:47.211Z,0
2023-08-29T01:49:03.466Z,0
2023-08-29T01:50:19.704Z,0
2023-08-29T01:51:35.009Z,0
2023-08-29T01:52:51.264Z,0
2023-08-29T01:54:07.515Z,0
2023-08-29T01:55:23.776Z,0
2023-08-29T01:56:40.018Z,0
2023-08-29T01:57:56.270Z,0
2023-08-29T01:59:12.513Z,0
2023-08-29T02:00:28.760Z,0
2023-08-29T02:01:45.037Z,0
2023-08-29T02:03:01.269Z,0
2023-08-29T02:04:17.518Z,0
2023-08-29T02:05:33.769Z,0
2023-08-29T02:06:46.000Z,0
2023-08-29T02:06:50.026Z,0
2023-08-29T02:09:21.578Z,0
2023-08-29T02:10:37.829Z,0
2023-08-29T02:11:54.071Z,0
2023-08-29T02:13:10.326Z,0
2023-08-29T02:14:26.579Z,0
2023-08-29T02:15:42.822Z,0
2023-08-29T02:16:59.078Z,0
2023-08-29T02:18:15.329Z,0
2023-08-29T02:19:31.574Z,0
2023-08-29T02:20:47.820Z,0
2023-08-29T02:22:04.069Z,0
2023-08-29T02:23:20.318Z,0
2023-08-29T02:24:35.628Z,0
2023-08-29T02:25:51.883Z,0
2023-08-29T02:27:08.129Z,0
2023-08-29T02:28:22.000Z,0
2023-08-29T02:28:24.375Z,0
2023-08-29T02:30:56.874Z,0
2023-08-29T02:32:13.127Z,0
2023-08-29T02:33:29.376Z,0
2023-08-29T02:34:45.635Z,0
2023-08-29T02:36:01.881Z,0
2023-08-29T02:37:18.128Z,0
2023-08-29T02:38:34.385Z,0
2023-08-29T02:39:50.627Z,0
2023-08-29T02:41:05.941Z,0
2023-08-29T02:42:22.187Z,0
2023-08-29T02:43:38.436Z,0
2023-08-29T02:44:54.683Z,0
2023-08-29T02:46:10.943Z,0
2023-08-29T02:47:27.196Z,0
2023-08-29T02:48:43.440Z,0
2023-08-29T02:49:59.684Z,0
2023-08-29T02:51:15.945Z,0
2023-08-29T02:52:32.191Z,0
2023-08-29T02:53:48.436Z,0
2023-08-29T02:55:04.688Z,0
2023-08-29T02:56:20.941Z,0
2023-08-29T02:57:37.191Z,0
2023-08-29T02:58:52.495Z,0
2023-08-29T03:00:08.746Z,0
2023-08-29T03:01:24.986Z,0
2023-08-29T03:02:41.240Z,0
2023-08-29T03:03:57.500Z,0
2023-08-29T03:05:13.749Z,0
2023-08-29T03:06:29.994Z,0
2023-08-29T03:07:46.251Z,0
2023-08-29T03:09:02.495Z,0
2023-08-29T03:10:18.741Z,0
2023-08-29T03:11:34.988Z,0
2023-08-29T03:12:51.242Z,0
2023-08-29T03:14:07.498Z,0
2023-08-29T03:15:22.806Z,0
2023-08-29T03:16:39.053Z,0
2023-08-29T03:17:55.304Z,0
2023-08-29T03:19:11.556Z,0
2023-08-29T03:20:27.795Z,0
2023-08-29T03:21:44.050Z,0
2023-08-29T03:23:00.297Z,0
2023-08-29T03:24:16.554Z,0
2023-08-29T03:25:32.800Z,0
2023-08-29T03:26:46.000Z,0
2023-08-29T03:26:49.051Z,0
2023-08-29T03:29:21.548Z,0
2023-08-29T03:30:37.810Z,0
2023-08-29T03:31:53.108Z,0
2023-08-29T03:34:25.609Z,0
2023-08-29T03:35:41.864Z,0
2023-08-29T03:36:58.107Z,0
2023-08-29T03:38:14.358Z,0
2023-08-29T03:39:30.615Z,0
2023-08-29T03:40:46.860Z,0
2023-08-29T03:42:03.112Z,0
2023-08-29T03:43:19.364Z,0
2023-08-29T03:44:35.612Z,0
2023-08-29T03:45:51.862Z,0
2023-08-29T03:47:08.104Z,0
2023-08-29T03:48:23.420Z,0
2023-08-29T03:49:39.670Z,0
2023-08-29T03:50:55.912Z,0
2023-08-29T03:52:12.171Z,0
2023-08-29T03:53:28.412Z,0
2023-08-29T03:54:44.665Z,0
2023-08-29T03:56:00.914Z,0
2023-08-29T03:57:17.169Z,0
2023-08-29T03:58:33.411Z,0
2023-08-29T03:59:49.671Z,0
2023-08-29T04:01:05.917Z,0
2023-08-29T04:02:22.168Z,0
2023-08-29T04:03:38.423Z,0
2023-08-29T04:04:53.725Z,0
2023-08-29T04:06:09.977Z,0
2023-08-29T04:07:26.231Z,0
2023-08-29T04:08:42.481Z,0
2023-08-29T04:09:58.729Z,4
2023-08-29T04:11:14.978Z,4
2023-08-29T04:12:31.228Z,4
2023-08-29T04:13:47.475Z,4
2023-08-29T04:15:03.728Z,8
2023-08-29T04:16:19.972Z,4
2023-08-29T04:17:36.230Z,8
2023-08-29T04:18:52.473Z,12
2023-08-29T04:20:05.000Z,16
2023-08-29T04:20:08.742Z,12
2023-08-29T04:22:40.292Z,20
2023-08-29T04:23:56.541Z,24
2023-08-29T04:25:12.785Z,28
2023-08-29T04:26:29.033Z,36
2023-08-29T04:27:45.287Z,44
2023-08-29T04:29:01.538Z,52
2023-08-29T04:30:17.784Z,64
2023-08-29T04:31:34.032Z,76
2023-08-29T04:32:50.296Z,88
2023-08-29T04:34:06.538Z,104
2023-08-29T04:35:22.783Z,120
2023-08-29T04:36:39.041Z,136
2023-08-29T04:37:55.285Z,156
2023-08-29T04:39:10.587Z,172
2023-08-29T04:40:24.000Z,216
2023-08-29T04:40:26.843Z,196
2023-08-29T04:42:59.344Z,240
2023-08-29T04:44:15.606Z,276
2023-08-29T04:45:31.842Z,304
2023-08-29T04:46:48.089Z,340
2023-08-29T04:48:04.349Z,384
2023-08-29T04:49:20.600Z,440
2023-08-29T04:50:36.843Z,496
2023-08-29T04:51:50.000Z,624
2023-08-29T04:51:53.097Z,560
2023-08-29T04:54:25.591Z,696
2023-08-29T04:55:40.901Z,776
2023-08-29T04:56:57.153Z,860
2023-08-29T04:58:13.409Z,956
2023-08-29T04:59:29.660Z,1056
2023-08-29T05:00:45.903Z,1168
2023-08-29T05:02:01.235Z,1284
2023-08-29T05:03:17.472Z,1404
2023-08-29T05:04:33.722Z,1524
2023-08-29T05:05:49.975Z,1660
2023-08-29T05:07:06.220Z,1788
2023-08-29T05:08:22.471Z,1928
2023-08-29T05:09:38.722Z,2068
2023-08-29T05:10:54.966Z,2216
2023-08-29T05:12:11.215Z,2384
2023-08-29T05:13:27.473Z,2544
2023-08-29T05:14:43.723Z,2712
2023-08-29T05:15:59.966Z,2880
2023-08-29T05:17:16.219Z,3076
2023-08-29T05:18:31.528Z,3288
2023-08-29T05:19:47.784Z,3520
2023-08-29T05:21:04.052Z,3744
2023-08-29T05:22:20.283Z,3972
2023-08-29T05:23:36.532Z,4188
2023-08-29T05:24:52.786Z,4396
2023-08-29T05:26:09.034Z,4620
2023-08-29T05:27:25.282Z,4856
2023-08-29T05:28:41.526Z,5092
2023-08-29T05:29:55.000Z,5476
2023-08-29T05:29:57.774Z,5304
2023-08-29T05:32:30.285Z,5672
2023-08-29T05:33:46.529Z,5920
2023-08-29T05:35:01.834Z,6172
2023-08-29T05:36:18.088Z,6436
2023-08-29T05:37:34.338Z,6632
2023-08-29T05:38:50.592Z,6772
2023-08-29T05:40:06.841Z,6956
2023-08-29T05:41:23.093Z,7100
2023-08-29T05:43:55.592Z,7460
2023-08-29T05:45:11.838Z,7676
2023-08-29T05:46:28.089Z,7892
2023-08-29T05:47:44.338Z,8044
2023-08-29T05:49:00.588Z,8096
2023-08-29T05:50:16.841Z,7956
2023-08-29T05:51:32.142Z,7952
2023-08-29T05:52:48.400Z,8112
2023-08-29T05:55:20.900Z,8452
2023-08-29T05:56:37.150Z,8456
2023-08-29T05:57:53.403Z,9032
2023-08-29T05:59:09.646Z,9084
2023-08-29T06:00:25.894Z,9056
2023-08-29T06:01:39.000Z,9460
2023-08-29T06:01:42.142Z,9212
2023-08-29T06:04:14.650Z,9660
2023-08-29T06:05:30.900Z,9720
2023-08-29T06:06:47.155Z,9960
2023-08-29T06:09:18.703Z,10632
2023-08-29T06:10:34.042Z,11104
2023-08-29T06:11:50.283Z,11232
2023-08-29T06:13:05.586Z,11216
2023-08-29T06:14:21.838Z,11448
2023-08-29T06:15:38.086Z,11500
2023-08-29T06:16:54.329Z,11872
2023-08-29T06:18:10.583Z,11920
2023-08-29T06:19:26.838Z,11664
2023-08-29T06:20:40.000Z,12256
2023-08-29T06:20:43.081Z,11532
2023-08-29T06:23:14.667Z,12556
2023-08-29T06:24:30.908Z,12980
2023-08-29T06:25:46.222Z,12992
2023-08-29T06:27:02.467Z,13344
2023-08-29T06:28:18.720Z,13592
2023-08-29T06:29:34.973Z,13980
2023-08-29T06:30:51.218Z,14076
2023-08-29T06:32:07.473Z,14752
2023-08-29T06:33:23.719Z,15080
2023-08-29T06:34:39.971Z,15808
2023-08-29T06:35:56.215Z,16032
2023-08-29T06:37:12.471Z,15904
2023-08-29T06:38:28.714Z,16192
2023-08-29T06:39:44.973Z,16576
2023-08-29T06:41:01.228Z,17312
2023-08-29T06:42:16.530Z,17792
2023-08-29T06:43:32.777Z,17984
2023-08-29T06:44:49.027Z,17984
2023-08-29T06:46:05.273Z,18144
2023-08-29T06:47:21.536Z,18208
2023-08-29T06:48:37.781Z,18464
2023-08-29T06:49:54.027Z,18752
2023-08-29T06:51:10.281Z,18848
2023-08-29T06:52:26.522Z,18592
2023-08-29T06:53:42.782Z,18816
2023-08-29T06:54:59.033Z,19136
2023-08-29T06:56:15.284Z,19584
2023-08-29T06:57:31.528Z,19808
2023-08-29T06:58:46.838Z,20128
2023-08-29T07:00:03.096Z,20288
2023-08-29T07:01:19.340Z,20352
2023-08-29T07:02:35.583Z,20608
2023-08-29T07:03:51.842Z,20800
2023-08-29T07:05:08.087Z,21152
2023-08-29T07:06:22.000Z,21760
2023-08-29T07:06:24.335Z,21504
2023-08-29T07:08:56.833Z,21376
2023-08-29T07:10:13.089Z,21056
2023-08-29T07:11:29.332Z,20832
2023-08-29T07:12:45.587Z,21408
2023-08-29T07:14:01.840Z,21536
2023-08-29T07:15:18.090Z,21152
2023-08-29T07:16:34.350Z,21696
2023-08-29T07:17:50.593Z,22048
2023-08-29T07:19:05.890Z,22752
2023-08-29T07:20:22.149Z,22944
2023-08-29T07:21:38.404Z,22720
2023-08-29T07:22:54.636Z,22656
2023-08-29T07:24:10.881Z,22688
2023-08-29T07:26:43.385Z,23072
2023-08-29T07:29:15.914Z,23136
2023-08-29T07:30:32.135Z,22208
2023-08-29T07:31:48.393Z,21504
2023-08-29T07:33:04.636Z,21664
2023-08-29T07:34:20.887Z,21344
2023-08-29T07:35:37.144Z,21312
2023-08-29T07:36:52.436Z,21728
2023-08-29T07:38:08.687Z,22176
2023-08-29T07:39:24.936Z,22496
2023-08-29T07:40:41.182Z,22976
2023-08-29T07:41:57.438Z,23168
2023-08-29T07:43:13.687Z,22624
2023-08-29T07:44:29.936Z,22720
2023-08-29T07:45:46.180Z,23072
2023-08-29T07:47:02.429Z,23616
2023-08-29T07:48:18.686Z,24032
2023-08-29T07:49:34.937Z,24032
2023-08-29T07:50:51.182Z,23520
2023-08-29T07:52:07.435Z,23680
2023-08-29T07:53:22.727Z,23776
2023-08-29T07:54:38.988Z,23392
2023-08-29T07:55:55.229Z,22976
2023-08-29T07:57:11.486Z,23552
2023-08-29T07:58:27.736Z,23584
2023-08-29T07:59:43.981Z,23552
2023-08-29T08:01:00.234Z,23936
2023-08-29T08:02:16.476Z,24832
2023-08-29T08:03:32.727Z,25280
2023-08-29T08:04:48.985Z,25408
2023-08-29T08:06:05.237Z,25184
2023-08-29T08:07:21.487Z,25440
2023-08-29T08:08:37.739Z,25088
2023-08-29T08:09:53.037Z,24160
2023-08-29T08:11:09.289Z,23552
2023-08-29T08:12:25.543Z,23744
2023-08-29T08:13:41.793Z,23072
2023-08-29T08:14:58.040Z,22976
2023-08-29T08:16:14.289Z,21600
2023-08-29T08:17:30.533Z,21024
2023-08-29T08:18:46.792Z,21088
2023-08-29T08:20:00.000Z,21344
2023-08-29T08:20:03.036Z,21792
2023-08-29T08:22:35.548Z,21312
2023-08-29T08:23:51.789Z,20128
2023-08-29T08:25:08.040Z,18912
2023-08-29T08:26:23.350Z,18400
2023-08-29T08:27:37.000Z,17696
2023-08-29T08:27:39.608Z,19040
2023-08-29T08:30:12.094Z,17376
2023-08-29T08:31:28.353Z,18400
2023-08-29T08:32:44.602Z,19264
2023-08-29T08:34:00.847Z,19840
2023-08-29T08:35:17.093Z,20864
2023-08-29T08:36:33.341Z,22176
2023-08-29T08:37:49.590Z,24128
2023-08-29T08:39:05.850Z,25472
2023-08-29T08:40:22.101Z,25568
2023-08-29T08:41:36.000Z,24352
2023-08-29T08:41:38.346Z,24576
2023-08-29T08:44:09.898Z,23968
2023-08-29T08:45:26.147Z,23296
2023-08-29T08:46:40.000Z,24512
2023-08-29T08:46:42.409Z,22848
2023-08-29T08:49:14.905Z,25856
2023-08-29T08:50:31.151Z,26208
2023-08-29T08:51:47.403Z,27200
2023-08-29T08:53:03.657Z,26592
2023-08-29T08:54:19.901Z,26048
2023-08-29T08:55:36.151Z,25952
2023-08-29T08:56:52.400Z,26272
2023-08-29T08:58:08.650Z,26656
2023-08-29T08:59:24.909Z,27360
2023-08-29T09:00:40.208Z,27584
2023-08-29T09:01:56.456Z,27776
2023-08-29T09:03:12.713Z,27776
2023-08-29T09:04:28.954Z,28352
2023-08-29T09:05:45.216Z,28992
2023-08-29T09:07:01.460Z,29120
2023-08-29T09:08:17.710Z,28768
2023-08-29T09:09:33.961Z,29312
2023-08-29T09:10:50.208Z,30208
2023-08-29T09:12:06.467Z,30912
2023-08-29T09:13:22.715Z,31904
2023-08-29T09:15:55.211Z,33600
2023-08-29T09:17:11.470Z,33888
2023-08-29T09:18:26.778Z,34016
2023-08-29T09:19:43.029Z,34528
2023-08-29T09:20:59.275Z,34656
2023-08-29T09:22:15.537Z,34016
2023-08-29T09:23:31.783Z,32640
2023-08-29T09:24:48.026Z,31200
2023-08-29T09:26:04.281Z,30688
2023-08-29T09:27:20.527Z,30368
2023-08-29T09:28:36.781Z,30400
2023-08-29T09:29:53.024Z,30592
2023-08-29T09:31:09.281Z,30624
2023-08-29T09:32:25.526Z,30752
2023-08-29T09:33:41.778Z,31872
2023-08-29T09:34:58.030Z,32064
2023-08-29T09:36:13.328Z,31200
2023-08-29T09:37:29.576Z,29792
2023-08-29T09:38:45.820Z,28672
2023-08-29T09:40:02.069Z,29504
2023-08-29T09:41:18.323Z,31520
2023-08-29T09:42:34.575Z,34208
2023-08-29T09:43:50.824Z,36448
2023-08-29T09:45:07.076Z,37120
2023-08-29T09:46:23.329Z,38080
2023-08-29T09:47:39.588Z,38400
2023-08-29T09:48:55.824Z,35488
2023-08-29T09:50:12.080Z,35072
2023-08-29T09:51:28.326Z,35744
2023-08-29T09:52:43.633Z,36704
2023-08-29T09:53:59.886Z,38208
2023-08-29T09:55:16.144Z,39104
2023-08-29T09:56:32.381Z,38240
2023-08-29T09:57:48.637Z,37440
2023-08-29T09:59:04.884Z,36416
2023-08-29T10:00:21.132Z,37824
2023-08-29T10:02:53.643Z,37408
2023-08-29T10:04:09.884Z,38624
2023-08-29T10:05:26.135Z,40384
2023-08-29T10:06:40.000Z,38336
2023-08-29T10:06:42.388Z,40896
2023-08-29T10:09:13.952Z,36608
2023-08-29T10:10:30.198Z,35616
2023-08-29T10:11:46.449Z,37024
2023-08-29T10:13:02.690Z,39680
2023-08-29T10:14:18.952Z,43360
2023-08-29T10:15:35.198Z,41408
2023-08-29T10:16:51.448Z,39008
2023-08-29T10:18:07.703Z,40576
2023-08-29T10:19:23.946Z,39616
2023-08-29T10:20:40.197Z,39456
2023-08-29T10:21:56.446Z,39936
2023-08-29T10:23:12.701Z,41184
2023-08-29T10:24:28.952Z,41568
2023-08-29T10:25:45.201Z,40096
2023-08-29T10:27:00.517Z,37728
2023-08-29T10:28:16.773Z,38496
2023-08-29T10:29:33.012Z,40192
2023-08-29T10:30:49.259Z,40800
2023-08-29T10:32:05.511Z,43712
2023-08-29T10:33:21.760Z,44768
2023-08-29T10:35:54.264Z,44160
2023-08-29T10:37:10.523Z,46080
2023-08-29T10:38:26.775Z,47424
2023-08-29T10:39:43.012Z,47744
2023-08-29T10:40:59.273Z,48384
2023-08-29T10:42:15.520Z,48768
2023-08-29T10:43:31.773Z,48672
2023-08-29T10:44:47.067Z,49408
2023-08-29T10:46:03.311Z,49664
2023-08-29T10:48:35.820Z,49728
2023-08-29T10:49:52.066Z,49856
2023-08-29T10:51:08.329Z,49984
2023-08-29T10:52:24.571Z,50496
2023-08-29T10:53:40.823Z,50816
2023-08-29T10:54:57.071Z,50528
2023-08-29T10:56:13.330Z,50752
2023-08-29T10:57:27.000Z,52704
2023-08-29T10:57:29.574Z,51488
2023-08-29T11:00:02.071Z,53344
2023-08-29T11:01:17.385Z,53408
2023-08-29T11:02:33.632Z,53120
2023-08-29T11:03:49.891Z,53152
2023-08-29T11:05:06.137Z,53088
2023-08-29T11:06:22.385Z,52896
2023-08-29T11:07:38.637Z,53536
2023-08-29T11:08:54.879Z,54336
2023-08-29T11:10:11.129Z,55840
2023-08-29T11:11:27.376Z,57728
2023-08-29T11:12:43.625Z,57888
2023-08-29T11:13:59.878Z,57440
2023-08-29T11:15:16.125Z,57312
2023-08-29T11:16:32.375Z,57600
2023-08-29T11:17:48.625Z,60096
2023-08-29T11:19:03.929Z,60704
2023-08-29T11:20:20.177Z,61856
2023-08-29T11:21:36.428Z,63424
2023-08-29T11:22:52.671Z,63648
2023-08-29T11:24:08.929Z,63136
2023-08-29T11:25:25.174Z,62176
2023-08-29T11:26:41.416Z,61792
2023-08-29T11:27:57.670Z,61984
2023-08-29T11:29:13.920Z,62976
2023-08-29T11:30:30.176Z,63808
2023-08-29T11:31:46.410Z,63104
2023-08-29T11:33:02.665Z,61792
2023-08-29T11:34:18.912Z,61056
2023-08-29T11:35:34.219Z,61184
2023-08-29T11:36:50.459Z,62560
2023-08-29T11:38:06.716Z,62752
2023-08-29T11:39:22.963Z,58592
2023-08-29T11:40:39.214Z,56768
2023-08-29T11:41:55.460Z,55328
2023-08-29T11:43:11.707Z,54688
2023-08-29T11:44:27.951Z,55328
2023-08-29T11:45:44.206Z,55232
2023-08-29T11:47:00.452Z,57792
2023-08-29T11:48:16.704Z,56096
2023-08-29T11:49:32.946Z,55232
2023-08-29T11:50:49.200Z,57216
2023-08-29T11:52:04.502Z,56832
2023-08-29T11:53:20.746Z,57216
2023-08-29T11:54:37.001Z,58400
2023-08-29T11:55:53.249Z,60224
2023-08-29T11:57:09.504Z,61568
2023-08-29T11:58:25.737Z,61248
2023-08-29T11:59:41.997Z,61088
2023-08-29T12:00:58.258Z,60960
2023-08-29T12:02:14.492Z,61056
2023-08-29T12:03:30.739Z,60800
2023-08-29T12:04:46.984Z,60480
2023-08-29T12:06:03.240Z,56832
2023-08-29T12:07:19.478Z,55936
2023-08-29T12:08:34.785Z,58016
2023-08-29T12:09:51.036Z,59680
2023-08-29T12:11:07.290Z,60128
2023-08-29T12:12:23.536Z,60448
2023-08-29T12:13:39.778Z,61280
2023-08-29T12:14:56.031Z,60544
2023-08-29T12:16:12.282Z,59232
2023-08-29T12:17:28.525Z,57952
2023-08-29T12:18:44.769Z,60896
2023-08-29T12:19:58.000Z,62336
2023-08-29T12:20:01.014Z,62080
2023-08-29T12:22:33.518Z,62240
2023-08-29T12:23:49.763Z,68064
2023-08-29T12:25:05.077Z,71840
2023-08-29T12:26:21.316Z,73408
2023-08-29T12:27:37.572Z,72224
2023-08-29T12:28:51.000Z,69280
2023-08-29T12:28:53.817Z,72096
2023-08-29T12:31:26.000Z,62976
2023-08-29T12:32:42.557Z,63680
2023-08-29T12:33:58.799Z,63104
2023-08-29T12:35:15.053Z,64352
2023-08-29T12:36:31.297Z,66080
2023-08-29T12:37:47.544Z,66784
2023-08-29T12:39:03.790Z,70720
2023-08-29T12:40:20.046Z,68864
2023-08-29T12:41:35.339Z,68032
2023-08-29T12:42:51.590Z,70016
2023-08-29T12:44:07.836Z,81312
2023-08-29T12:45:24.084Z,77792
2023-08-29T12:46:40.333Z,71392
2023-08-29T12:47:56.577Z,68384
2023-08-29T12:49:12.828Z,65088
2023-08-29T12:50:29.079Z,66720
2023-08-29T12:51:45.325Z,67456
2023-08-29T12:53:01.569Z,64640
2023-08-29T12:54:17.818Z,69344
2023-08-29T12:55:34.065Z,67744
2023-08-29T12:56:50.313Z,69696
2023-08-29T12:58:06.558Z,66528
2023-08-29T12:59:20.000Z,67072
2023-08-29T12:59:22.808Z,67904
2023-08-29T13:00:35.000Z,63936
2023-08-29T13:03:10.614Z,69856
2023-08-29T13:04:26.864Z,81408
2023-08-29T13:05:43.110Z,85024
2023-08-29T13:06:59.358Z,87520
2023-08-29T13:08:15.609Z,87264
2023-08-29T13:09:31.857Z,88672
2023-08-29T13:10:48.101Z,92480
2023-08-29T13:12:04.353Z,86912
2023-08-29T13:13:20.594Z,83936
2023-08-29T13:14:36.845Z,84448
2023-08-29T13:15:53.101Z,88096
2023-08-29T13:17:05.000Z,87072
2023-08-29T13:17:09.345Z,82656
2023-08-29T13:19:40.912Z,85088
2023-08-29T13:20:57.149Z,88640
2023-08-29T13:22:13.401Z,83456
2023-08-29T13:23:29.648Z,75904
2023-08-29T13:24:45.894Z,80192
2023-08-29T13:26:02.148Z,72416
2023-08-29T13:27:18.390Z,64544
2023-08-29T13:28:34.643Z,54176
2023-08-29T13:29:50.888Z,52512
2023-08-29T13:31:07.138Z,47552
2023-08-29T13:32:23.385Z,45504
2023-08-29T13:33:38.701Z,45952
2023-08-29T13:34:54.944Z,57696
2023-08-29T13:36:11.201Z,61120
2023-08-29T13:37:27.442Z,56160
2023-08-29T13:38:43.702Z,61824
2023-08-29T13:39:59.941Z,58496
2023-08-29T13:41:16.186Z,58624
2023-08-29T13:42:32.444Z,61248
2023-08-29T13:43:48.689Z,59712
2023-08-29T13:45:04.956Z,62848
2023-08-29T13:46:21.187Z,67488
2023-08-29T13:47:37.434Z,68352
2023-08-29T13:50:09.930Z,64160
2023-08-29T13:51:25.231Z,57760
2023-08-29T13:52:41.487Z,50784
2023-08-29T13:53:57.741Z,44416
2023-08-29T13:55:13.988Z,40480
2023-08-29T13:56:30.232Z,40448
2023-08-29T13:57:46.478Z,39968
2023-08-29T13:59:02.722Z,44064
2023-08-29T14:00:18.979Z,45536
2023-08-29T14:01:35.225Z,41184
2023-08-29T14:02:51.477Z,41632
2023-08-29T14:04:07.758Z,47200
2023-08-29T14:05:23.971Z,49120
2023-08-29T14:06:40.220Z,40416
2023-08-29T14:07:55.520Z,46336
2023-08-29T14:09:11.770Z,50336
2023-08-29T14:10:28.014Z,55232
2023-08-29T14:11:44.272Z,52160
2023-08-29T14:13:00.513Z,42880
2023-08-29T14:14:16.764Z,44704
2023-08-29T14:15:33.010Z,51520
2023-08-29T14:16:49.270Z,54304
2023-08-29T14:18:05.510Z,51328
2023-08-29T14:19:21.769Z,46720
2023-08-29T14:20:38.005Z,46656
2023-08-29T14:21:54.264Z,49120
2023-08-29T14:23:10.500Z,58336
2023-08-29T14:24:25.817Z,60896
2023-08-29T14:25:42.051Z,59040
2023-08-29T14:26:58.289Z,59584
2023-08-29T14:28:14.538Z,47648
2023-08-29T14:29:30.793Z,44448
2023-08-29T14:30:47.034Z,41504
2023-08-29T14:32:03.297Z,43808
2023-08-29T14:33:19.544Z,56416
2023-08-29T14:34:35.778Z,63232
2023-08-29T14:35:52.029Z,48384
2023-08-29T14:37:08.284Z,50176
2023-08-29T14:38:24.527Z,41984
2023-08-29T14:39:40.779Z,40608
2023-08-29T14:40:53.000Z,38240
2023-08-29T14:40:56.085Z,39648
2023-08-29T14:43:28.586Z,37920
2023-08-29T14:44:44.833Z,37664
2023-08-29T14:46:01.081Z,37088
2023-08-29T14:47:17.330Z,36640
2023-08-29T14:48:33.577Z,36544
2023-08-29T14:49:49.818Z,40960
2023-08-29T14:51:06.071Z,41632
2023-08-29T14:52:22.315Z,44128
2023-08-29T14:53:38.568Z,46208
2023-08-29T14:54:54.824Z,42816
2023-08-29T14:56:11.061Z,43648
2023-08-29T14:57:26.366Z,43168
2023-08-29T14:58:42.624Z,44224
2023-08-29T14:59:58.863Z,48928
2023-08-29T15:01:15.118Z,47808
2023-08-29T15:02:31.364Z,46112
2023-08-29T15:03:47.628Z,52256
2023-08-29T15:05:03.867Z,59136
2023-08-29T15:06:20.111Z,62304
2023-08-29T15:07:36.362Z,61440
2023-08-29T15:08:52.608Z,60192
2023-08-29T15:10:08.853Z,60672
2023-08-29T15:11:25.097Z,59776
2023-08-29T15:12:41.352Z,58496
2023-08-29T15:13:56.656Z,57632
2023-08-29T15:15:12.908Z,56000
2023-08-29T15:16:29.151Z,55616
2023-08-29T15:17:45.419Z,55872
2023-08-29T15:19:01.650Z,55552
2023-08-29T15:20:17.904Z,55808
2023-08-29T15:21:34.147Z,54368
2023-08-29T15:22:50.395Z,52416
2023-08-29T15:24:06.650Z,51296
2023-08-29T15:25:22.894Z,50240
2023-08-29T15:26:39.141Z,51104
2023-08-29T15:27:55.389Z,50016
2023-08-29T15:29:11.638Z,49280
2023-08-29T15:30:26.942Z,50080
2023-08-29T15:31:43.188Z,50560
2023-08-29T15:32:59.451Z,49376
2023-08-29T15:34:15.698Z,48576
2023-08-29T15:35:31.943Z,48256
2023-08-29T15:36:48.185Z,47744
2023-08-29T15:38:04.436Z,48864
2023-08-29T15:39:20.693Z,49312
2023-08-29T15:40:36.936Z,49504
2023-08-29T15:41:53.188Z,49088
2023-08-29T15:43:09.450Z,47776
2023-08-29T15:44:25.681Z,46496
2023-08-29T15:45:41.931Z,45568
2023-08-29T15:46:57.238Z,43904
2023-08-29T15:48:13.493Z,41472
2023-08-29T15:49:29.735Z,41120
2023-08-29T15:50:45.978Z,41440
2023-08-29T15:52:02.233Z,41088
2023-08-29T15:53:18.478Z,42528
2023-08-29T15:54:34.731Z,43872
2023-08-29T15:55:50.982Z,44064
2023-08-29T15:57:07.230Z,45120
2023-08-29T15:58:23.480Z,46208
2023-08-29T15:59:39.721Z,43840
2023-08-29T16:00:55.971Z,41152
2023-08-29T16:02:12.221Z,39328
2023-08-29T16:03:28.468Z,38784
2023-08-29T16:04:44.720Z,39552
2023-08-29T16:06:00.022Z,39168
2023-08-29T16:07:16.273Z,37696
2023-08-29T16:08:32.521Z,36608
2023-08-29T16:09:46.000Z,35616
2023-08-29T16:09:48.774Z,35808
2023-08-29T16:12:21.270Z,36128
2023-08-29T16:13:37.513Z,36768
2023-08-29T16:14:53.765Z,35808
2023-08-29T16:16:10.018Z,34144
2023-08-29T16:17:26.263Z,34880
2023-08-29T16:18:42.511Z,37728
2023-08-29T16:19:58.761Z,37056
2023-08-29T16:21:15.014Z,35392
2023-08-29T16:22:30.308Z,34496
2023-08-29T16:23:46.563Z,34592
2023-08-29T16:25:02.811Z,34880
2023-08-29T16:26:19.057Z,33056
2023-08-29T16:27:35.306Z,33696
2023-08-29T16:28:51.554Z,33344
2023-08-29T16:30:07.805Z,34080
2023-08-29T16:31:24.048Z,32992
2023-08-29T16:32:40.299Z,31744
2023-08-29T16:33:53.000Z,30752
2023-08-29T16:33:56.553Z,31584
2023-08-29T16:36:29.051Z,30016
2023-08-29T16:37:45.301Z,29056
2023-08-29T16:39:00.594Z,27488
2023-08-29T16:40:16.847Z,27008
2023-08-29T16:41:33.094Z,25824
2023-08-29T16:42:49.346Z,25600
2023-08-29T16:44:05.594Z,25472
2023-08-29T16:45:21.848Z,25120
2023-08-29T16:46:38.094Z,24320
2023-08-29T16:47:54.338Z,23328
2023-08-29T16:49:10.589Z,23264
2023-08-29T16:50:26.836Z,22976
2023-08-29T16:51:43.088Z,22752
2023-08-29T16:52:59.339Z,21056
2023-08-29T16:54:15.578Z,20256
2023-08-29T16:55:30.897Z,19744
2023-08-29T16:56:47.133Z,18848
2023-08-29T16:58:03.390Z,18112
2023-08-29T16:59:19.638Z,17600
2023-08-29T17:00:35.885Z,16800
2023-08-29T17:01:52.134Z,15392
2023-08-29T17:03:05.000Z,14416
2023-08-29T17:03:08.376Z,14568
2023-08-29T17:05:40.883Z,14624
2023-08-29T17:06:57.122Z,13968
2023-08-29T17:08:13.375Z,13296
2023-08-29T17:09:29.622Z,12516
2023-08-29T17:10:45.873Z,12304
2023-08-29T17:12:01.177Z,11968
2023-08-29T17:13:17.427Z,11552